CheckWX is a tool to help pilots better visualize weather data.  It is not intended as a substitute for an official pre-flight weather briefing.

01:41:34 UTC

KSUX METAR
Sioux Gateway / Col Bud Day Field Airport
Sioux City, Iowa, USA
Current

50 mins ago

KSUX 160052Z 00000KT 10SM BKN070 M09/M11 A3008 RMK AO2 SNB2353E25 SLP209 P0000 T10941111
Observed
Dec-16 @ 00:52 UTC
Visibility
10 SM
Flight Rules
VFR
Cloud Levels
  • Broken at 7,000' AGL
Temperature
-9°C / 16°F
Dewpoint
-11°C / 12°F
Humidity
86%
Altimeter
30.08" Hg
Pressure
1018.62 hPa
Current Rain
0.01"
Previous

1 hour ago

KSUX 160032Z 00000KT 10SM FEW044 BKN070 OVC085 M09/M10 A3008 RMK AO2 SNB2353E25 P0000 T10891100
Observed
Dec-16 @ 00:32 UTC
Visibility
10 SM
Flight Rules
VFR
Cloud Levels
  • Few at 4,400' AGL
  • Broken at 7,000' AGL
  • Overcast at 8,500' AGL
Temperature
-9°C / 16°F
Dewpoint
-10°C / 14°F
Humidity
93%
Altimeter
30.08" Hg
Pressure
1018.62 hPa
Current Rain
0.01"
Previous

2 hours ago

KSUX 152352Z 18003KT 9SM BKN009 OVC060 M08/M10 A3007 RMK AO2 SNE01B33E42 SLP203 P0000 60003 T10831100 11078 21094 53008
Observed
Dec-15 @ 23:52 UTC
Wind
  • 180° at 3 KTS
Visibility
9 SM
Flight Rules
IFR
Cloud Levels
  • Broken at 900' AGL
  • Overcast at 6,000' AGL
Temperature
-8°C / 18°F
Dewpoint
-10°C / 14°F
Humidity
86%
Altimeter
30.07" Hg
Pressure
1018.32 hPa
Current Rain
0.01"